createdAt,value
2022-12-11T00:02:06.285Z,4.60
2022-12-11T00:04:54.955Z,4.60
2022-12-11T00:07:43.812Z,4.50
2022-12-11T00:10:37.663Z,4.50
2022-12-11T00:13:26.848Z,4.50
2022-12-11T00:16:15.695Z,4.40
2022-12-11T00:19:04.982Z,4.40
2022-12-11T00:21:53.603Z,4.40
2022-12-11T00:24:42.250Z,4.40
2022-12-11T00:27:32.643Z,4.40
2022-12-11T00:30:21.421Z,4.50
2022-12-11T00:33:10.849Z,4.50
2022-12-11T00:35:59.558Z,4.50
2022-12-11T00:38:50.213Z,4.40
2022-12-11T00:41:38.893Z,4.50
2022-12-11T00:44:29.017Z,4.50
2022-12-11T00:47:17.858Z,4.50
2022-12-11T00:50:08.149Z,4.50
2022-12-11T00:52:57.113Z,4.50
2022-12-11T00:55:45.835Z,4.50
2022-12-11T00:58:34.562Z,4.50
2022-12-11T01:01:26.276Z,4.40
2022-12-11T01:04:14.969Z,4.40
2022-12-11T01:07:03.774Z,4.50
2022-12-11T01:10:09.986Z,4.40
2022-12-11T01:13:02.564Z,4.40
2022-12-11T01:15:51.526Z,4.40
2022-12-11T01:18:42.508Z,4.50
2022-12-11T01:21:31.561Z,4.50
2022-12-11T01:24:20.298Z,4.50
2022-12-11T01:27:09.131Z,4.50
2022-12-11T01:29:57.791Z,4.50
2022-12-11T01:32:46.506Z,4.50
2022-12-11T01:35:36.652Z,4.50
2022-12-11T01:38:25.301Z,4.50
2022-12-11T01:41:14.665Z,4.50
2022-12-11T01:44:09.736Z,4.60
2022-12-11T01:46:58.419Z,4.50
2022-12-11T01:49:47.166Z,4.50
2022-12-11T01:52:37.859Z,4.60
2022-12-11T01:55:26.581Z,4.60
2022-12-11T01:58:16.538Z,4.60
2022-12-11T02:01:05.712Z,4.60
2022-12-11T02:03:55.817Z,4.60
2022-12-11T02:06:47.838Z,4.60
2022-12-11T02:09:42.769Z,4.60
2022-12-11T02:12:42.463Z,4.60
2022-12-11T02:15:38.488Z,4.60
2022-12-11T02:18:36.591Z,4.60
2022-12-11T02:21:29.127Z,4.60
2022-12-11T02:24:49.350Z,4.60
2022-12-11T02:27:46.851Z,4.60
2022-12-11T02:30:40.598Z,4.60
2022-12-11T02:33:38.299Z,4.60
2022-12-11T02:36:31.691Z,4.60
2022-12-11T02:39:22.478Z,4.60
2022-12-11T02:42:12.929Z,4.60
2022-12-11T02:45:04.941Z,4.60
2022-12-11T02:47:55.274Z,4.60
2022-12-11T02:50:47.377Z,4.60
2022-12-11T02:53:40.037Z,4.70
2022-12-11T02:56:35.399Z,4.60
2022-12-11T02:59:31.846Z,4.60
2022-12-11T03:02:20.593Z,4.60
2022-12-11T03:05:13.968Z,4.60
2022-12-11T03:08:03.688Z,4.60
2022-12-11T03:10:52.802Z,4.60
2022-12-11T03:13:43.309Z,4.60
2022-12-11T03:16:37.057Z,4.60
2022-12-11T03:19:33.546Z,4.60
2022-12-11T03:22:34.310Z,4.60
2022-12-11T03:25:27.936Z,4.70
2022-12-11T03:28:21.244Z,4.70
2022-12-11T03:31:14.551Z,4.70
2022-12-11T03:34:15.769Z,4.60
2022-12-11T03:37:07.191Z,4.70
2022-12-11T03:40:05.086Z,4.70
2022-12-11T03:42:54.772Z,4.70
2022-12-11T03:45:44.706Z,4.70
2022-12-11T03:48:40.506Z,4.60
2022-12-11T03:51:30.973Z,4.70
2022-12-11T03:54:20.208Z,4.60
2022-12-11T03:57:13.426Z,4.60
2022-12-11T04:00:04.858Z,4.60
2022-12-11T04:03:16.452Z,4.60
2022-12-11T04:06:05.403Z,4.60
2022-12-11T04:08:54.081Z,4.60
2022-12-11T04:11:42.997Z,4.60
2022-12-11T04:14:50.509Z,4.60
2022-12-11T04:17:56.796Z,4.60
2022-12-11T04:21:03.092Z,4.60
2022-12-11T04:24:09.312Z,4.60
2022-12-11T04:26:57.962Z,4.60
2022-12-11T04:29:48.100Z,4.60
2022-12-11T04:32:36.909Z,4.60
2022-12-11T04:35:25.655Z,4.60
2022-12-11T04:38:14.256Z,4.60
2022-12-11T04:41:05.779Z,4.60
2022-12-11T04:43:54.443Z,4.60
2022-12-11T04:46:44.651Z,4.60
2022-12-11T04:49:33.352Z,4.60
2022-12-11T04:52:22.207Z,4.60
2022-12-11T04:55:12.719Z,4.60
2022-12-11T04:58:02.031Z,4.60
2022-12-11T05:00:50.888Z,4.70
2022-12-11T05:03:41.389Z,4.70
2022-12-11T05:06:30.417Z,4.70
2022-12-11T05:09:19.390Z,4.70
2022-12-11T05:12:08.421Z,4.70
2022-12-11T05:14:57.289Z,4.70
2022-12-11T05:17:45.974Z,4.70
2022-12-11T05:20:36.418Z,4.70
2022-12-11T05:23:25.343Z,4.80
2022-12-11T05:26:17.118Z,4.80
2022-12-11T05:29:05.873Z,4.80
2022-12-11T05:31:54.449Z,4.80
2022-12-11T05:34:43.170Z,4.80
2022-12-11T05:37:35.189Z,4.80
2022-12-11T05:40:23.844Z,4.80
2022-12-11T05:43:12.507Z,4.90
2022-12-11T05:46:08.297Z,4.90
2022-12-11T05:49:00.339Z,4.90
2022-12-11T05:51:49.689Z,4.90
2022-12-11T05:54:40.029Z,4.90
2022-12-11T05:57:28.705Z,4.90
2022-12-11T06:00:17.370Z,4.90
2022-12-11T06:03:06.114Z,4.90
2022-12-11T06:05:54.902Z,4.90
2022-12-11T06:08:43.808Z,4.90
2022-12-11T06:11:35.673Z,4.90
2022-12-11T06:14:24.318Z,4.90
2022-12-11T06:17:12.937Z,4.90
2022-12-11T06:20:01.552Z,4.90
2022-12-11T06:22:50.228Z,4.90
2022-12-11T06:25:40.033Z,4.90
2022-12-11T06:28:30.022Z,4.90
2022-12-11T06:31:19.447Z,4.90
2022-12-11T06:34:08.098Z,4.90
2022-12-11T06:36:57.302Z,4.90
2022-12-11T06:39:46.066Z,4.90
2022-12-11T06:42:34.797Z,4.90
2022-12-11T06:45:25.366Z,4.90
2022-12-11T06:48:14.473Z,4.90
2022-12-11T06:51:08.200Z,4.90
2022-12-11T06:53:58.282Z,4.90
2022-12-11T06:56:47.332Z,4.90
2022-12-11T06:59:36.008Z,4.90
2022-12-11T07:02:26.058Z,4.90
2022-12-11T07:05:14.703Z,4.90
2022-12-11T07:08:03.425Z,4.90
2022-12-11T07:10:52.172Z,4.90
2022-12-11T07:13:42.117Z,4.90
2022-12-11T07:16:30.792Z,4.90
2022-12-11T07:19:20.890Z,5.00
2022-12-11T07:22:09.491Z,4.90
2022-12-11T07:24:58.270Z,5.00
2022-12-11T07:27:47.758Z,5.00
2022-12-11T07:30:36.374Z,4.90
2022-12-11T07:33:25.049Z,5.00
2022-12-11T07:36:16.802Z,5.00
2022-12-11T07:39:05.919Z,5.00
2022-12-11T07:41:55.138Z,5.00
2022-12-11T07:44:43.914Z,5.00
2022-12-11T07:47:33.077Z,5.00
2022-12-11T07:50:21.786Z,5.00
2022-12-11T07:53:12.049Z,5.00
2022-12-11T07:56:00.926Z,5.00
2022-12-11T07:58:50.205Z,5.00
2022-12-11T08:01:40.038Z,5.00
2022-12-11T08:04:28.752Z,4.90
2022-12-11T08:07:17.749Z,5.00
2022-12-11T08:10:08.868Z,4.90
2022-12-11T08:12:57.492Z,4.90
2022-12-11T08:15:46.199Z,4.90
2022-12-11T08:18:38.257Z,5.00
2022-12-11T08:21:29.036Z,5.00
2022-12-11T08:24:20.782Z,5.00
2022-12-11T08:27:10.809Z,5.00
2022-12-11T08:29:59.539Z,5.00
2022-12-11T08:32:48.232Z,5.00
2022-12-11T08:35:40.677Z,5.00
2022-12-11T08:38:29.299Z,5.00
2022-12-11T08:41:20.592Z,5.00
2022-12-11T08:44:16.629Z,5.00
2022-12-11T08:47:05.871Z,5.00
2022-12-11T08:49:54.523Z,5.00
2022-12-11T08:52:43.162Z,5.00
2022-12-11T08:55:33.086Z,5.00
2022-12-11T08:58:21.787Z,5.00
2022-12-11T09:01:14.342Z,5.00
2022-12-11T09:04:04.379Z,5.00
2022-12-11T09:06:53.035Z,5.00
2022-12-11T09:09:41.680Z,5.00
2022-12-11T09:12:30.501Z,5.10
2022-12-11T09:15:19.400Z,5.00
2022-12-11T09:18:10.203Z,5.10
2022-12-11T09:21:04.025Z,5.10
2022-12-11T09:23:56.547Z,5.00
2022-12-11T09:26:45.177Z,5.00
2022-12-11T09:29:34.099Z,5.00
2022-12-11T09:32:23.206Z,5.00
2022-12-11T09:35:13.488Z,5.10
2022-12-11T09:38:02.331Z,5.00
2022-12-11T09:40:51.039Z,5.10
2022-12-11T09:43:44.354Z,5.10
2022-12-11T09:46:34.912Z,5.00
2022-12-11T09:49:33.283Z,5.10
2022-12-11T09:52:32.958Z,5.10
2022-12-11T09:55:25.222Z,5.10
2022-12-11T09:58:23.765Z,5.00
2022-12-11T10:01:23.902Z,5.10
2022-12-11T10:04:30.038Z,5.10
2022-12-11T10:07:27.794Z,5.10
2022-12-11T10:10:32.381Z,5.10
2022-12-11T10:13:34.185Z,5.10
2022-12-11T10:16:37.462Z,5.10
2022-12-11T10:19:29.919Z,5.10
2022-12-11T10:22:26.083Z,5.10
2022-12-11T10:25:28.856Z,5.10
2022-12-11T10:28:20.887Z,5.10
2022-12-11T10:31:32.987Z,5.10
2022-12-11T10:34:33.575Z,5.10
2022-12-11T10:37:22.279Z,5.10
2022-12-11T10:40:13.985Z,5.10
2022-12-11T10:43:02.772Z,5.10
2022-12-11T10:45:53.571Z,5.10
2022-12-11T10:48:48.562Z,5.10
2022-12-11T10:51:38.589Z,5.10
2022-12-11T10:54:34.277Z,5.10
2022-12-11T10:57:30.258Z,5.10
2022-12-11T11:00:34.827Z,5.10
2022-12-11T11:03:27.490Z,5.10
2022-12-11T11:06:20.671Z,5.10
2022-12-11T11:09:31.673Z,5.00
2022-12-11T11:12:27.988Z,5.10
2022-12-11T11:15:20.660Z,5.10
2022-12-11T11:18:26.083Z,5.10
2022-12-11T11:21:18.285Z,5.10
2022-12-11T11:24:07.102Z,5.10
2022-12-11T11:27:12.789Z,5.10
2022-12-11T11:30:09.165Z,5.10
2022-12-11T11:33:02.244Z,5.10
2022-12-11T11:35:55.626Z,5.10
2022-12-11T11:38:50.201Z,5.10
2022-12-11T11:41:47.851Z,5.20
2022-12-11T11:44:43.598Z,5.10
2022-12-11T11:47:39.005Z,5.20
2022-12-11T11:50:34.039Z,5.20
2022-12-11T11:53:37.346Z,5.20
2022-12-11T11:56:34.953Z,5.20
2022-12-11T11:59:28.907Z,5.20
2022-12-11T12:02:20.017Z,5.20
2022-12-11T12:05:14.532Z,5.20
2022-12-11T12:08:13.969Z,5.20
2022-12-11T12:11:07.983Z,5.20
2022-12-11T12:14:29.152Z,5.20
2022-12-11T12:17:32.571Z,5.20
2022-12-11T12:20:40.049Z,5.20
2022-12-11T12:24:01.417Z,5.20
2022-12-11T12:27:02.606Z,5.20
2022-12-11T12:30:00.830Z,5.20
2022-12-11T12:33:03.964Z,5.20
2022-12-11T12:36:06.556Z,5.20
2022-12-11T12:42:21.127Z,5.20
2022-12-11T12:45:23.960Z,5.20
2022-12-11T12:48:12.605Z,5.20
2022-12-11T12:51:04.203Z,5.30
2022-12-11T12:53:59.726Z,5.30
2022-12-11T12:56:49.794Z,5.30
2022-12-11T12:59:38.390Z,5.30
2022-12-11T13:02:27.664Z,5.30
2022-12-11T13:05:24.557Z,5.30
2022-12-11T13:08:25.644Z,5.30
2022-12-11T13:11:18.397Z,5.30
2022-12-11T13:14:27.073Z,5.30
2022-12-11T13:17:35.974Z,5.30
2022-12-11T13:20:28.388Z,5.30
2022-12-11T13:23:21.941Z,5.30
2022-12-11T13:26:11.080Z,5.30
2022-12-11T13:29:00.227Z,5.20
2022-12-11T13:32:00.377Z,5.20
2022-12-11T13:34:55.303Z,5.30
2022-12-11T13:37:46.369Z,5.30
2022-12-11T13:40:41.398Z,5.20
2022-12-11T13:43:32.544Z,5.20
2022-12-11T13:46:26.694Z,5.20
2022-12-11T13:49:24.987Z,5.20
2022-12-11T13:52:20.265Z,5.20
2022-12-11T13:55:24.881Z,5.30
2022-12-11T13:58:24.504Z,5.30
2022-12-11T14:01:17.604Z,5.30
2022-12-11T14:04:14.061Z,5.30
2022-12-11T14:07:04.359Z,5.20
2022-12-11T14:09:53.958Z,5.20
2022-12-11T14:12:48.900Z,5.30
2022-12-11T14:15:39.499Z,5.30
2022-12-11T14:18:31.441Z,5.30
2022-12-11T14:21:23.195Z,5.30
2022-12-11T14:24:14.483Z,5.30
2022-12-11T14:27:04.743Z,5.30
2022-12-11T14:29:53.570Z,5.30
2022-12-11T14:32:46.088Z,5.30
2022-12-11T14:35:39.529Z,5.30
2022-12-11T14:38:33.423Z,5.30
2022-12-11T14:41:28.568Z,5.20
2022-12-11T14:44:19.319Z,5.20
2022-12-11T14:47:15.335Z,5.20
2022-12-11T14:50:11.350Z,5.20
2022-12-11T14:53:04.356Z,5.20
2022-12-11T14:55:53.932Z,5.30
2022-12-11T14:58:53.345Z,5.20
2022-12-11T15:01:42.019Z,5.30
2022-12-11T15:04:32.843Z,5.30
2022-12-11T15:07:23.147Z,5.30
2022-12-11T15:10:25.114Z,5.30
2022-12-11T15:13:16.675Z,5.30
2022-12-11T15:16:08.396Z,5.30
2022-12-11T15:18:58.821Z,5.30
2022-12-11T15:21:47.862Z,5.40
2022-12-11T15:24:41.028Z,5.30
2022-12-11T15:27:36.662Z,5.30
2022-12-11T15:30:36.082Z,5.30
2022-12-11T15:33:25.814Z,5.40
2022-12-11T15:36:33.196Z,5.30
2022-12-11T15:39:21.846Z,5.40
2022-12-11T15:42:15.149Z,5.30
2022-12-11T15:45:07.539Z,5.40
2022-12-11T15:47:57.301Z,5.40
2022-12-11T15:50:46.102Z,5.40
2022-12-11T15:53:34.747Z,5.40
2022-12-11T15:56:23.516Z,5.30
2022-12-11T15:59:13.915Z,5.30
2022-12-11T16:02:02.645Z,5.30
2022-12-11T16:04:51.776Z,5.40
2022-12-11T16:07:40.864Z,5.30
2022-12-11T16:10:30.781Z,5.30
2022-12-11T16:13:19.581Z,5.40
2022-12-11T16:16:10.294Z,5.40
2022-12-11T16:18:59.029Z,5.40
2022-12-11T16:21:48.688Z,5.40
2022-12-11T16:24:38.226Z,5.40
2022-12-11T16:27:26.931Z,5.30
2022-12-11T16:30:16.809Z,5.40
2022-12-11T16:33:12.502Z,5.40
2022-12-11T16:36:01.999Z,5.40
2022-12-11T16:38:53.998Z,5.40
2022-12-11T16:41:43.006Z,5.40
2022-12-11T16:44:32.104Z,5.40
2022-12-11T16:47:20.778Z,5.40
2022-12-11T16:50:11.422Z,5.40
2022-12-11T16:53:00.098Z,5.40
2022-12-11T16:55:48.875Z,5.40
2022-12-11T16:58:37.904Z,5.40
2022-12-11T17:01:26.685Z,5.40
2022-12-11T17:04:15.351Z,5.40
2022-12-11T17:07:07.357Z,5.40
2022-12-11T17:09:56.056Z,5.40
2022-12-11T17:12:44.728Z,5.40
2022-12-11T17:15:33.538Z,5.40
2022-12-11T17:18:22.257Z,5.40
2022-12-11T17:21:14.050Z,5.40
2022-12-11T17:24:04.481Z,5.40
2022-12-11T17:26:53.782Z,5.40
2022-12-11T17:29:42.479Z,5.40
2022-12-11T17:32:31.192Z,5.40
2022-12-11T17:35:19.950Z,5.40
2022-12-11T17:38:08.708Z,5.40
2022-12-11T17:40:58.936Z,5.40
2022-12-11T17:43:48.006Z,5.40
2022-12-11T17:46:37.168Z,5.30
2022-12-11T17:49:26.121Z,5.40
2022-12-11T17:52:15.149Z,5.30
2022-12-11T17:55:04.397Z,5.30
2022-12-11T17:57:54.473Z,5.30
2022-12-11T18:00:46.706Z,5.30
2022-12-11T18:03:35.442Z,5.30
2022-12-11T18:06:24.089Z,5.30
2022-12-11T18:09:12.749Z,5.30
2022-12-11T18:12:02.690Z,5.30
2022-12-11T18:14:52.746Z,5.30
2022-12-11T18:17:41.677Z,5.30
2022-12-11T18:20:32.205Z,5.30
2022-12-11T18:23:20.857Z,5.30
2022-12-11T18:26:11.076Z,5.30
2022-12-11T18:28:59.907Z,5.40
2022-12-11T18:31:50.332Z,5.30
2022-12-11T18:34:39.043Z,5.40
2022-12-11T18:37:28.240Z,5.30
2022-12-11T18:40:16.955Z,5.30
2022-12-11T18:43:05.686Z,5.30
2022-12-11T18:45:54.360Z,5.30
2022-12-11T18:48:45.891Z,5.30
2022-12-11T18:51:34.867Z,5.30
2022-12-11T18:54:23.568Z,5.30
2022-12-11T18:57:12.484Z,5.30
2022-12-11T19:00:07.099Z,5.40
2022-12-11T19:02:55.787Z,5.30
2022-12-11T19:05:45.850Z,5.30
2022-12-11T19:08:16.217Z,5.40
2022-12-11T19:10:48.407Z,5.40
2022-12-11T19:13:17.027Z,5.40
2022-12-11T19:15:47.154Z,5.40
2022-12-11T19:18:15.675Z,5.40
2022-12-11T19:20:52.215Z,5.40
2022-12-11T19:23:24.360Z,5.40
2022-12-11T19:25:52.819Z,5.40
2022-12-11T19:28:21.881Z,5.40
2022-12-11T19:30:51.024Z,5.40
2022-12-11T19:33:19.480Z,5.40
2022-12-11T19:35:49.343Z,5.40
2022-12-11T19:38:17.797Z,5.40
2022-12-11T19:40:46.450Z,5.40
2022-12-11T19:43:14.959Z,5.50
2022-12-11T19:45:45.752Z,5.40
2022-12-11T19:48:14.913Z,5.50
2022-12-11T19:50:43.434Z,5.50
2022-12-11T19:53:13.441Z,5.50
2022-12-11T19:55:42.202Z,5.50
2022-12-11T19:58:10.573Z,5.50
2022-12-11T20:00:39.223Z,5.50
2022-12-11T20:03:07.772Z,5.50
2022-12-11T20:05:37.292Z,5.50
2022-12-11T20:08:35.734Z,5.50
2022-12-11T20:10:56.107Z,5.50
2022-12-11T20:13:24.651Z,5.50
2022-12-11T20:15:53.382Z,5.50
2022-12-11T20:18:21.959Z,5.50
2022-12-11T20:20:50.369Z,5.40
2022-12-11T20:23:18.999Z,5.50
2022-12-11T20:25:47.801Z,5.50
2022-12-11T20:28:18.225Z,5.50
2022-12-11T20:30:46.699Z,5.50
2022-12-11T20:33:15.789Z,5.50
2022-12-11T20:35:46.130Z,5.50
2022-12-11T20:38:14.630Z,5.50
2022-12-11T20:40:47.291Z,5.50
2022-12-11T20:43:17.180Z,5.50
2022-12-11T20:45:49.485Z,5.50
2022-12-11T20:48:19.727Z,5.50
2022-12-11T20:50:48.267Z,5.40
2022-12-11T20:53:16.733Z,5.50
2022-12-11T20:55:45.419Z,5.40
2022-12-11T20:58:13.875Z,5.50
2022-12-11T21:00:44.117Z,5.40
2022-12-11T21:03:12.552Z,5.40
2022-12-11T21:05:42.840Z,5.50
2022-12-11T21:08:11.724Z,5.40
2022-12-11T21:10:43.709Z,5.50
2022-12-11T21:13:12.254Z,5.50
2022-12-11T21:15:43.281Z,5.40
2022-12-11T21:18:11.713Z,5.50
2022-12-11T21:20:40.053Z,5.40
2022-12-11T21:23:08.488Z,5.40
2022-12-11T21:25:40.534Z,5.40
2022-12-11T21:28:09.321Z,5.40
2022-12-11T21:30:41.312Z,5.40
2022-12-11T21:33:11.209Z,5.40
2022-12-11T21:35:39.794Z,5.40
2022-12-11T21:38:08.278Z,5.40
2022-12-11T21:40:36.886Z,5.40
2022-12-11T21:43:05.246Z,5.40
2022-12-11T21:46:00.523Z,5.40
2022-12-11T21:48:27.592Z,5.40
2022-12-11T21:50:56.047Z,5.40
2022-12-11T21:53:24.446Z,5.30
2022-12-11T21:55:54.251Z,5.30
2022-12-11T21:58:23.176Z,5.40
2022-12-11T22:00:51.697Z,5.40
2022-12-11T22:03:20.162Z,5.40
2022-12-11T22:05:50.472Z,5.40
2022-12-11T22:08:19.058Z,5.40
2022-12-11T22:10:47.751Z,5.40
2022-12-11T22:13:16.298Z,5.40
2022-12-11T22:15:44.987Z,5.40
2022-12-11T22:18:13.548Z,5.40
2022-12-11T22:20:42.341Z,5.40
2022-12-11T22:23:12.771Z,5.40
2022-12-11T22:25:41.766Z,5.40
2022-12-11T22:28:10.422Z,5.40
2022-12-11T22:30:39.820Z,5.40
2022-12-11T22:33:08.713Z,5.40
2022-12-11T22:35:37.308Z,5.40
2022-12-11T22:38:06.473Z,5.40
2022-12-11T22:40:40.598Z,5.40
2022-12-11T22:43:09.180Z,5.40
2022-12-11T22:45:40.968Z,5.40
2022-12-11T22:48:10.380Z,5.40
2022-12-11T22:50:41.635Z,5.40
2022-12-11T22:53:10.826Z,5.40
2022-12-11T22:55:41.232Z,5.40
2022-12-11T22:58:09.569Z,5.40
2022-12-11T23:00:37.976Z,5.40
2022-12-11T23:03:06.874Z,5.30
2022-12-11T23:05:35.445Z,5.40
2022-12-11T23:08:04.323Z,5.40
2022-12-11T23:10:32.761Z,5.30
2022-12-11T23:13:03.328Z,5.30
2022-12-11T23:15:32.113Z,5.30
2022-12-11T23:18:02.021Z,5.30
2022-12-11T23:20:30.878Z,5.30
2022-12-11T23:22:59.376Z,5.40
2022-12-11T23:25:28.124Z,5.30
2022-12-11T23:27:56.571Z,5.30
2022-12-11T23:30:26.395Z,5.30
2022-12-11T23:32:54.836Z,5.30
2022-12-11T23:35:23.642Z,5.40
2022-12-11T23:37:52.085Z,5.30
2022-12-11T23:40:20.684Z,5.30
2022-12-11T23:42:49.701Z,5.30
2022-12-11T23:45:21.090Z,5.30
2022-12-11T23:47:51.411Z,5.30
2022-12-11T23:50:20.529Z,5.30
2022-12-11T23:52:49.157Z,5.30
2022-12-11T23:55:17.798Z,5.30
2022-12-11T23:57:46.182Z,5.30
